KPOC/POC METAR and TAF weather

Enter ICAO airport designator
Station Type Date Time Source
KPOC METAR 2021/07/25 21:47 UTC NOAA

KPOC 252147Z 26008KT 10SM CLR 30/15 A2995


Station Type Date Time Source
KPOC Decoded METAR 2021/07/25 21:47 UTC NOAA

La Verne / Brackett, CA, United States (KPOC) 34-06N 117-47W
Jul 25, 2021 - 05:47 PM EDT / 2021.07.25 2147 UTC
Wind: from the W (260 degrees) at 9 MPH (8 KT):0
Visibility: 10 mile(s):0
Sky conditions: clear
Temperature: 86 F (30 C)
Dew Point: 59 F (15 C)
Relative Humidity: 40%
Pressure (altimeter): 29.95 in. Hg (1014 hPa)
ob: KPOC 252147Z 26008KT 10SM CLR 30/15 A2995
cycle: 22

Station Type Date Time Source
KPOC TAF UTC NOAA

Error!

Example: see airport list